createdAt,value
2022-10-16T00:01:14.986Z,100132.56
2022-10-16T00:03:43.621Z,100135.63
2022-10-16T00:06:11.429Z,100135.03
2022-10-16T00:08:39.094Z,100132.56
2022-10-16T00:11:19.154Z,100128.91
2022-10-16T00:13:49.453Z,100127.28
2022-10-16T00:16:16.607Z,100132.38
2022-10-16T00:18:43.520Z,100141.16
2022-10-16T00:21:14.987Z,100136.66
2022-10-16T00:23:42.235Z,100143.19
2022-10-16T00:26:12.132Z,100144.41
2022-10-16T00:28:39.675Z,100159.69
2022-10-16T00:31:08.758Z,100152.56
2022-10-16T00:33:36.781Z,100150.28
2022-10-16T00:36:05.487Z,100148.66
2022-10-16T00:38:32.792Z,100158.22
2022-10-16T00:40:59.899Z,100150.69
2022-10-16T00:43:54.366Z,100143.75
2022-10-16T00:46:24.427Z,100152.31
2022-10-16T00:49:02.815Z,100159.84
2022-10-16T00:51:36.910Z,100152.91
2022-10-16T00:54:08.771Z,100153.09
2022-10-16T00:56:35.791Z,100155.75
2022-10-16T00:59:12.986Z,100156.97
2022-10-16T01:01:39.699Z,100157.97
2022-10-16T01:04:06.441Z,100158.16
2022-10-16T01:06:42.078Z,100165.13
2022-10-16T01:09:36.240Z,100165.94
2022-10-16T01:12:09.602Z,100161.22
2022-10-16T01:15:11.381Z,100171.41
2022-10-16T01:17:43.968Z,100173.25
2022-10-16T01:20:27.394Z,100175.69
2022-10-16T01:23:15.685Z,100184.44
2022-10-16T01:26:03.962Z,100181.19
2022-10-16T01:28:46.082Z,100179.75
2022-10-16T01:31:19.002Z,100174.66
2022-10-16T01:36:52.949Z,100178.09
2022-10-16T01:39:25.706Z,100185.66
2022-10-16T01:42:17.651Z,100198.28
2022-10-16T01:44:47.612Z,100199.28
2022-10-16T01:47:16.516Z,100193.41
2022-10-16T01:49:46.089Z,100194.41
2022-10-16T01:52:20.209Z,100195.22
2022-10-16T01:54:49.994Z,100191.34
2022-10-16T01:57:18.265Z,100186.41
2022-10-16T01:59:53.240Z,100190.09
2022-10-16T02:02:23.223Z,100207.81
2022-10-16T02:04:56.017Z,100201.47
2022-10-16T02:07:23.719Z,100194.16
2022-10-16T02:09:50.674Z,100199.06
2022-10-16T02:12:28.325Z,100207.22
2022-10-16T02:14:55.459Z,100209.44
2022-10-16T02:17:22.803Z,100204.34
2022-10-16T02:19:52.499Z,100214.13
2022-10-16T02:22:34.910Z,100214.25
2022-10-16T02:25:14.320Z,100224.06
2022-10-16T02:28:21.069Z,100223.25
2022-10-16T02:30:58.553Z,100228.53
2022-10-16T02:33:37.478Z,100228.72
2022-10-16T02:36:04.515Z,100233.19
2022-10-16T02:38:32.010Z,100220.16
2022-10-16T02:40:59.710Z,100225.44
2022-10-16T02:43:30.831Z,100222.78
2022-10-16T02:45:57.722Z,100234.41
2022-10-16T02:48:24.512Z,100237.25
2022-10-16T02:50:52.289Z,100238.06
2022-10-16T02:53:19.041Z,100228.69
2022-10-16T02:55:45.793Z,100249.84
2022-10-16T02:58:12.718Z,100253.31
2022-10-16T03:00:39.547Z,100260.66
2022-10-16T03:03:06.379Z,100259.22
2022-10-16T03:05:33.142Z,100266.16
2022-10-16T03:08:01.871Z,100260.22
2022-10-16T03:10:28.897Z,100268.16
2022-10-16T03:12:55.661Z,100270.63
2022-10-16T03:15:22.404Z,100271.63
2022-10-16T03:17:49.217Z,100279.31
2022-10-16T03:20:16.116Z,100283.81
2022-10-16T03:22:42.992Z,100283.19
2022-10-16T03:25:09.844Z,100282.56
2022-10-16T03:27:36.562Z,100282.72
2022-10-16T03:30:04.158Z,100281.13
2022-10-16T03:32:32.288Z,100280.09
2022-10-16T03:34:59.031Z,100286.41
2022-10-16T03:37:26.175Z,100282.69
2022-10-16T03:39:53.646Z,100278.41
2022-10-16T03:42:20.455Z,100280.63
2022-10-16T03:44:47.233Z,100287.75
2022-10-16T03:47:14.001Z,100287.75
2022-10-16T03:49:40.758Z,100299.94
2022-10-16T03:52:07.596Z,100300.16
2022-10-16T03:54:34.356Z,100304.44
2022-10-16T03:57:01.346Z,100308.94
2022-10-16T03:59:28.071Z,100309.75
2022-10-16T04:01:54.787Z,100316.88
2022-10-16T04:04:21.574Z,100310.91
2022-10-16T04:06:48.360Z,100308.09
2022-10-16T04:09:15.211Z,100327.34
2022-10-16T04:11:42.010Z,100329.19
2022-10-16T04:14:08.796Z,100344.06
2022-10-16T04:16:35.670Z,100343.88
2022-10-16T04:19:02.438Z,100341.22
2022-10-16T04:21:29.978Z,100342.03
2022-10-16T04:23:56.734Z,100353.63
2022-10-16T04:26:23.483Z,100357.28
2022-10-16T04:28:50.277Z,100371.34
2022-10-16T04:31:17.006Z,100370.69
2022-10-16T04:33:44.859Z,100372.91
2022-10-16T04:36:11.754Z,100385.50
2022-10-16T04:38:38.720Z,100390.97
2022-10-16T04:41:05.786Z,100392.19
2022-10-16T04:43:32.644Z,100408.69
2022-10-16T04:45:59.378Z,100411.34
2022-10-16T04:48:26.523Z,100414.00
2022-10-16T04:50:55.108Z,100416.00
2022-10-16T04:53:22.263Z,100417.16
2022-10-16T04:55:49.234Z,100420.84
2022-10-16T04:58:16.007Z,100422.66
2022-10-16T05:00:42.842Z,100423.66
2022-10-16T05:03:10.170Z,100428.97
2022-10-16T05:05:37.766Z,100433.59
2022-10-16T05:08:05.229Z,100442.38
2022-10-16T05:10:32.007Z,100451.13
2022-10-16T05:12:59.256Z,100452.34
2022-10-16T05:15:26.380Z,100456.59
2022-10-16T05:17:55.090Z,100456.97
2022-10-16T05:20:21.922Z,100465.75
2022-10-16T05:22:48.855Z,100467.75
2022-10-16T05:25:15.634Z,100467.28
2022-10-16T05:27:42.911Z,100464.66
2022-10-16T05:30:12.421Z,100481.72
2022-10-16T05:32:39.541Z,100481.06
2022-10-16T05:35:10.158Z,100481.47
2022-10-16T05:37:39.351Z,100489.84
2022-10-16T05:40:06.698Z,100490.28
2022-10-16T05:42:33.408Z,100496.22
2022-10-16T05:45:00.156Z,100506.44
2022-10-16T05:47:27.674Z,100509.25
2022-10-16T05:49:54.600Z,100508.97
2022-10-16T05:52:21.413Z,100507.97
2022-10-16T05:54:48.244Z,100519.22
2022-10-16T05:57:14.955Z,100523.28
2022-10-16T05:59:41.677Z,100527.75
2022-10-16T06:02:13.959Z,100523.50
2022-10-16T06:04:40.807Z,100518.56
2022-10-16T06:07:07.662Z,100529.34
2022-10-16T06:09:34.391Z,100531.34
2022-10-16T06:12:01.136Z,100531.72
2022-10-16T06:14:27.936Z,100536.19
2022-10-16T06:16:54.711Z,100541.66
2022-10-16T06:19:21.612Z,100534.09
2022-10-16T06:21:49.221Z,100538.72
2022-10-16T06:24:15.941Z,100542.19
2022-10-16T06:26:42.653Z,100548.66
2022-10-16T06:29:09.960Z,100543.38
2022-10-16T06:31:36.800Z,100553.78
2022-10-16T06:34:05.841Z,100548.66
2022-10-16T06:36:32.738Z,100556.41
2022-10-16T06:38:59.625Z,100553.22
2022-10-16T06:41:26.529Z,100548.94
2022-10-16T06:43:53.511Z,100558.69
2022-10-16T06:46:23.606Z,100551.56
2022-10-16T06:48:50.581Z,100553.41
2022-10-16T06:51:22.745Z,100573.56
2022-10-16T06:54:02.880Z,100570.91
2022-10-16T06:56:32.400Z,100578.22
2022-10-16T06:58:59.791Z,100581.88
2022-10-16T07:01:27.760Z,100598.72
2022-10-16T07:03:54.752Z,100598.06
2022-10-16T07:06:24.081Z,100610.97
2022-10-16T07:08:51.164Z,100615.25
2022-10-16T07:11:23.172Z,100618.91
2022-10-16T07:13:54.896Z,100621.53
2022-10-16T07:16:26.329Z,100632.75
2022-10-16T07:19:00.516Z,100645.63
2022-10-16T07:21:31.163Z,100636.88
2022-10-16T07:24:00.372Z,100643.81
2022-10-16T07:26:28.858Z,100649.09
2022-10-16T07:28:56.124Z,100657.88
2022-10-16T07:31:23.791Z,100650.56
2022-10-16T07:33:51.143Z,100658.97
2022-10-16T07:36:19.652Z,100661.41
2022-10-16T07:38:47.350Z,100662.25
2022-10-16T07:41:16.556Z,100657.41
2022-10-16T07:43:50.862Z,100672.13
2022-10-16T11:04:30.782Z,100823.84
2022-10-16T11:07:32.940Z,100820.44
2022-10-16T11:10:17.845Z,100823.88
2022-10-16T11:12:50.593Z,100818.38
2022-10-16T11:15:22.943Z,100822.69
2022-10-16T11:18:12.275Z,100822.06
2022-10-16T11:20:45.970Z,100817.78
2022-10-16T11:23:34.906Z,100823.88
2022-10-16T11:26:07.954Z,100819.59
2022-10-16T11:28:41.323Z,100820.44
2022-10-16T11:31:33.946Z,100821.88
2022-10-16T11:34:08.261Z,100816.75
2022-10-16T11:36:43.894Z,100811.44
2022-10-16T11:39:23.471Z,100805.28
2022-10-16T11:42:04.329Z,100804.28
2022-10-16T11:45:06.270Z,100812.06
2022-10-16T11:47:58.099Z,100814.72
2022-10-16T11:50:35.885Z,100811.91
2022-10-16T11:53:15.927Z,100810.84
2022-10-16T11:55:46.969Z,100811.69
2022-10-16T11:58:21.146Z,100810.31
2022-10-16T12:00:57.800Z,100814.84
2022-10-16T12:03:30.787Z,100816.66
2022-10-16T12:06:20.452Z,100818.78
2022-10-16T12:08:48.627Z,100808.78
2022-10-16T12:11:27.444Z,100823.53
2022-10-16T12:14:07.507Z,100815.16
2022-10-16T12:16:34.810Z,100814.16
2022-10-16T12:19:16.587Z,100811.31
2022-10-16T12:22:04.704Z,100814.75
2022-10-16T12:24:36.595Z,100811.75
2022-10-16T12:27:05.320Z,100812.16
2022-10-16T12:29:44.039Z,100814.09
2022-10-16T12:32:46.291Z,100798.81
2022-10-16T12:35:27.891Z,100795.94
2022-10-16T12:37:55.617Z,100791.25
2022-10-16T12:40:35.423Z,100790.03
2022-10-16T12:43:24.938Z,100790.50
2022-10-16T12:46:11.063Z,100780.28
2022-10-16T12:48:49.114Z,100784.38
2022-10-16T12:51:24.322Z,100784.00
2022-10-16T12:54:03.720Z,100783.41
2022-10-16T12:56:37.717Z,100782.22
2022-10-16T12:59:13.705Z,100775.88
2022-10-16T13:02:15.448Z,100780.19
2022-10-16T13:05:20.293Z,100771.00
2022-10-16T13:08:31.216Z,100778.75
2022-10-16T13:11:21.753Z,100772.44
2022-10-16T13:14:18.452Z,100766.09
2022-10-16T13:17:09.618Z,100771.44
2022-10-16T13:19:55.237Z,100774.50
2022-10-16T13:22:43.248Z,100781.28
2022-10-16T13:25:22.079Z,100783.53
2022-10-16T13:27:57.673Z,100780.09
2022-10-16T13:30:30.998Z,100786.66
2022-10-16T13:33:14.371Z,100785.25
2022-10-16T13:35:50.894Z,100776.66
2022-10-16T13:38:22.657Z,100780.38
2022-10-16T13:41:19.435Z,100772.84
2022-10-16T13:43:51.858Z,100770.78
2022-10-16T13:46:21.369Z,100760.97
2022-10-16T13:49:06.270Z,100759.97
2022-10-16T13:51:34.035Z,100755.66
2022-10-16T13:54:00.982Z,100752.00
2022-10-16T13:56:30.519Z,100752.81
2022-10-16T13:59:02.746Z,100750.75
2022-10-16T14:01:33.569Z,100759.78
2022-10-16T14:04:07.269Z,100757.72
2022-10-16T14:06:35.215Z,100763.88
2022-10-16T14:09:07.758Z,100769.00
2022-10-16T14:11:38.400Z,100761.00
2022-10-16T14:14:05.241Z,100754.88
2022-10-16T14:16:34.027Z,100767.97
2022-10-16T14:19:06.500Z,100761.63
2022-10-16T14:21:34.680Z,100754.47
2022-10-16T14:24:13.092Z,100752.63
2022-10-16T14:26:50.457Z,100748.13
2022-10-16T14:29:21.104Z,100750.78
2022-10-16T14:32:00.853Z,100755.91
2022-10-16T14:34:37.307Z,100745.66
2022-10-16T14:37:27.506Z,100756.28
2022-10-16T14:39:58.085Z,100760.81
2022-10-16T14:42:36.149Z,100751.19
2022-10-16T14:45:11.406Z,100761.63
2022-10-16T14:47:50.165Z,100758.97
2022-10-16T14:50:18.856Z,100764.09
2022-10-16T14:52:46.147Z,100757.94
2022-10-16T14:55:14.149Z,100760.59
2022-10-16T14:57:41.673Z,100750.97
2022-10-16T15:00:17.365Z,100754.47
2022-10-16T15:02:45.126Z,100750.38
2022-10-16T15:05:21.425Z,100763.69
2022-10-16T15:07:48.381Z,100758.34
2022-10-16T15:10:15.422Z,100767.16
2022-10-16T15:12:43.033Z,100771.66
2022-10-16T15:15:25.085Z,100771.84
2022-10-16T15:17:54.832Z,100777.34
2022-10-16T15:20:21.622Z,100769.78
2022-10-16T15:22:48.611Z,100770.78
2022-10-16T15:25:21.592Z,100765.69
2022-10-16T15:27:48.498Z,100768.53
2022-10-16T15:30:15.326Z,100756.25
2022-10-16T15:32:42.164Z,100753.59
2022-10-16T15:35:10.346Z,100749.94
2022-10-16T15:37:37.191Z,100740.31
2022-10-16T15:40:04.402Z,100728.00
2022-10-16T15:42:31.444Z,100728.22
2022-10-16T15:44:58.489Z,100720.44
2022-10-16T15:47:25.615Z,100718.59
2022-10-16T15:49:52.730Z,100705.50
2022-10-16T15:52:19.753Z,100710.63
2022-10-16T15:54:51.790Z,100711.47
2022-10-16T15:57:21.737Z,100720.91
2022-10-16T15:59:48.889Z,100718.84
2022-10-16T16:02:15.847Z,100716.84
2022-10-16T16:04:44.261Z,100717.84
2022-10-16T16:07:12.150Z,100721.94
2022-10-16T16:09:39.648Z,100709.44
2022-10-16T16:12:07.046Z,100705.31
2022-10-16T16:14:34.396Z,100705.53
2022-10-16T16:17:01.501Z,100704.06
2022-10-16T16:19:28.919Z,100702.25
2022-10-16T16:21:58.425Z,100687.72
2022-10-16T16:24:25.699Z,100691.38
2022-10-16T16:26:52.863Z,100694.03
2022-10-16T16:29:19.871Z,100678.09
2022-10-16T16:31:58.455Z,100682.78
2022-10-16T16:34:27.018Z,100682.16
2022-10-16T16:36:54.326Z,100670.72
2022-10-16T16:39:21.335Z,100669.69
2022-10-16T16:41:58.437Z,100664.38
2022-10-16T16:44:26.104Z,100667.41
2022-10-16T16:46:52.996Z,100666.41
2022-10-16T16:49:20.366Z,100676.44
2022-10-16T16:51:57.746Z,100685.44
2022-10-16T16:54:25.073Z,100686.63
2022-10-16T16:56:52.382Z,100702.81
2022-10-16T16:59:21.460Z,100685.19
2022-10-16T17:01:58.178Z,100681.09
2022-10-16T17:04:25.339Z,100686.41
2022-10-16T17:06:55.632Z,100672.50
2022-10-16T17:09:23.694Z,100668.00
2022-10-16T17:11:52.303Z,100668.00
2022-10-16T17:14:19.303Z,100669.84
2022-10-16T17:16:46.184Z,100677.19
2022-10-16T17:19:16.299Z,100676.38
2022-10-16T17:21:49.833Z,100682.50
2022-10-16T17:24:16.771Z,100679.03
2022-10-16T17:26:49.299Z,100681.50
2022-10-16T17:29:18.575Z,100683.13
2022-10-16T17:31:51.567Z,100676.38
2022-10-16T17:34:18.782Z,100674.72
2022-10-16T17:36:47.226Z,100682.69
2022-10-16T17:39:19.150Z,100671.28
2022-10-16T17:41:51.225Z,100680.25
2022-10-16T17:44:21.577Z,100674.13
2022-10-16T17:46:53.802Z,100675.31
2022-10-16T17:49:22.170Z,100666.53
2022-10-16T17:51:54.636Z,100659.59
2022-10-16T17:54:21.535Z,100674.91
2022-10-16T17:56:49.027Z,100666.28
2022-10-16T17:59:16.187Z,100663.03
2022-10-16T18:01:50.396Z,100675.50
2022-10-16T18:04:18.061Z,100673.03
2022-10-16T18:06:46.037Z,100674.88
2022-10-16T18:09:18.250Z,100665.28
2022-10-16T18:12:00.045Z,100665.28
2022-10-16T18:14:31.505Z,100673.03
2022-10-16T18:16:59.304Z,100668.13
2022-10-16T18:19:32.098Z,100667.94
2022-10-16T18:21:59.274Z,100660.97
2022-10-16T18:24:26.938Z,100666.66
2022-10-16T18:26:56.819Z,100660.09
2022-10-16T18:29:25.934Z,100666.88
2022-10-16T18:31:57.327Z,100668.50
2022-10-16T18:34:26.990Z,100662.56
2022-10-16T18:36:55.311Z,100660.75
2022-10-16T18:39:23.960Z,100652.78
2022-10-16T18:41:59.814Z,100650.94
2022-10-16T18:44:27.818Z,100649.28
2022-10-16T18:46:57.274Z,100637.00
2022-10-16T18:49:25.152Z,100637.19
2022-10-16T18:51:56.814Z,100633.72
2022-10-16T18:54:24.807Z,100632.28
2022-10-16T18:56:52.751Z,100617.78
2022-10-16T18:59:20.713Z,100626.75
2022-10-16T19:01:56.114Z,100619.59
2022-10-16T19:04:24.108Z,100602.03
2022-10-16T19:06:54.147Z,100595.25
2022-10-16T19:09:23.527Z,100590.16
2022-10-16T19:11:53.859Z,100600.78
2022-10-16T19:14:21.410Z,100590.16
2022-10-16T19:16:48.985Z,100595.66
2022-10-16T19:19:21.174Z,100587.69
2022-10-16T19:22:11.706Z,100592.00
2022-10-16T19:24:39.252Z,100599.97
2022-10-16T19:27:06.563Z,100594.66
2022-10-16T19:29:33.531Z,100583.19
2022-10-16T19:32:05.111Z,100573.38
2022-10-16T19:34:34.627Z,100570.91
2022-10-16T19:37:01.398Z,100577.88
2022-10-16T19:39:28.186Z,100577.47
2022-10-16T19:42:00.896Z,100570.31
2022-10-16T19:44:27.643Z,100582.59
2022-10-16T19:46:54.400Z,100587.91
2022-10-16T19:49:22.187Z,100588.31
2022-10-16T19:51:55.370Z,100582.19
2022-10-16T19:54:22.303Z,100573.19
2022-10-16T19:56:49.257Z,100577.69
2022-10-16T19:59:20.451Z,100575.84
2022-10-16T20:01:58.817Z,100575.66
2022-10-16T20:04:25.614Z,100556.25
2022-10-16T20:06:52.569Z,100557.69
2022-10-16T20:09:19.434Z,100549.72
2022-10-16T20:11:53.264Z,100550.53
2022-10-16T20:14:20.234Z,100550.31
2022-10-16T20:16:46.968Z,100544.63
2022-10-16T20:19:14.304Z,100544.63
2022-10-16T20:21:57.963Z,100552.38
2022-10-16T20:24:24.764Z,100546.88
2022-10-16T20:26:51.790Z,100528.69
2022-10-16T20:29:18.806Z,100531.16
2022-10-16T20:31:52.115Z,100538.31
2022-10-16T20:34:18.865Z,100540.75
2022-10-16T20:36:46.762Z,100541.38
2022-10-16T20:39:16.388Z,100530.72
2022-10-16T20:41:57.187Z,100539.53
2022-10-16T20:44:24.031Z,100544.66
2022-10-16T20:46:50.773Z,100539.34
2022-10-16T20:49:35.957Z,100540.97
2022-10-16T20:52:04.489Z,100528.28
2022-10-16T20:54:31.231Z,100538.91
2022-10-16T20:56:58.162Z,100532.41
2022-10-16T20:59:25.039Z,100532.81
2022-10-16T21:01:54.768Z,100515.84
2022-10-16T21:04:21.631Z,100527.09
2022-10-16T21:06:48.483Z,100533.03
2022-10-16T21:09:15.610Z,100543.66
2022-10-16T21:11:46.515Z,100559.41
2022-10-16T21:14:13.375Z,100567.38
2022-10-16T21:16:40.114Z,100553.28
2022-10-16T21:19:07.388Z,100556.75
2022-10-16T21:21:47.577Z,100546.94
2022-10-16T21:24:16.651Z,100529.34
2022-10-16T21:26:45.478Z,100523.19
2022-10-16T21:29:12.400Z,100526.06
2022-10-16T21:31:39.667Z,100516.66
2022-10-16T21:34:06.689Z,100536.91
2022-10-16T21:36:37.109Z,100550.22
2022-10-16T21:39:16.409Z,100523.00
2022-10-16T21:41:48.103Z,100522.16
2022-10-16T21:44:15.806Z,100522.16
2022-10-16T21:46:46.377Z,100519.50
2022-10-16T21:49:18.128Z,100507.66
2022-10-16T21:51:51.475Z,100514.81
2022-10-16T21:54:20.706Z,100505.19
2022-10-16T21:56:47.479Z,100500.72
2022-10-16T21:59:15.332Z,100496.03
2022-10-16T22:01:53.276Z,100509.09
2022-10-16T22:04:20.330Z,100509.91
2022-10-16T22:06:47.438Z,100507.25
2022-10-16T22:09:15.273Z,100510.53
2022-10-16T22:11:46.400Z,100520.16
2022-10-16T22:14:16.232Z,100505.81
2022-10-16T22:16:43.958Z,100501.13
2022-10-16T22:19:12.478Z,100505.63
2022-10-16T22:21:49.662Z,100504.81
2022-10-16T22:24:16.694Z,100504.59
2022-10-16T22:26:44.237Z,100500.72
2022-10-16T22:29:15.358Z,100501.97
2022-10-16T22:31:52.749Z,100503.59
2022-10-16T22:34:20.329Z,100501.31
2022-10-16T22:36:49.400Z,100495.00
2022-10-16T22:39:17.361Z,100485.16
2022-10-16T22:41:46.535Z,100494.38
2022-10-16T22:44:14.037Z,100485.59
2022-10-16T22:46:40.865Z,100487.44
2022-10-16T22:49:07.739Z,100480.28
2022-10-16T22:51:34.597Z,100466.16
2022-10-16T22:54:01.399Z,100477.38
2022-10-16T22:56:28.278Z,100470.03
2022-10-16T22:58:55.295Z,100474.94
2022-10-16T23:01:27.274Z,100472.06
2022-10-16T23:03:54.052Z,100468.19
2022-10-16T23:06:20.973Z,100476.19
2022-10-16T23:08:52.466Z,100475.94
2022-10-16T23:11:19.448Z,100475.75
2022-10-16T23:13:46.624Z,100486.19
2022-10-16T23:16:16.578Z,100484.13
2022-10-16T23:18:45.023Z,100490.91
2022-10-16T23:21:20.019Z,100485.16
2022-10-16T23:23:47.426Z,100480.44
2022-10-16T23:26:18.156Z,100487.19
2022-10-16T23:28:45.162Z,100501.16
2022-10-16T23:31:14.033Z,100498.50
2022-10-16T23:33:41.377Z,100501.75
2022-10-16T23:36:11.086Z,100503.38
2022-10-16T23:38:38.571Z,100499.72
2022-10-16T23:41:05.588Z,100502.38
2022-10-16T23:43:32.472Z,100506.66
2022-10-16T23:45:59.434Z,100506.25
2022-10-16T23:48:26.240Z,100508.50
2022-10-16T23:50:53.178Z,100499.06
2022-10-16T23:53:20.091Z,100493.31
2022-10-16T23:55:46.865Z,100493.13
2022-10-16T23:58:13.899Z,100491.09
